KMDD/MDD METAR and TAF weather

Enter ICAO airport designator
Station Type Date Time Source
KMDD METAR 2018/12/13 22:15 UTC NOAA

KMDD 132215Z AUTO 34022G31KT 10SM 10/M03 A3005 RMK AO2 T00961035


Station Type Date Time Source
KMDD Decoded METAR 2018/12/13 22:15 UTC NOAA

Midland, Midland Airpark, TX, United States (KMDD) 32-02-11N 102-06-03W
Dec 13, 2018 - 05:15 PM EST / 2018.12.13 2215 UTC
Wind: from the NNW (340 degrees) at 25 MPH (22 KT) gusting to 36 MPH (31 KT):0
Visibility: 10 mile(s):0
Temperature: 49.3 F (9.6 C)
Dew Point: 25.7 F (-3.5 C)
Relative Humidity: 39%
Pressure (altimeter): 30.05 in. Hg (1017 hPa)
ob: KMDD 132215Z AUTO 34022G31KT 10SM 10/M03 A3005 RMK AO2 T00961035
cycle: 22

Station Type Date Time Source
KMDD TAF UTC NOAA

Error!


Example: see airport list